createdAt,value
2022-10-19T00:01:09.093Z,74.39
2022-10-19T00:03:36.422Z,74.15
2022-10-19T00:06:28.106Z,74.33
2022-10-19T00:09:05.848Z,74.48
2022-10-19T00:11:34.567Z,74.45
2022-10-19T00:14:02.136Z,74.40
2022-10-19T00:16:32.326Z,74.49
2022-10-19T00:19:01.229Z,74.68
2022-10-19T00:21:28.767Z,74.60
2022-10-19T00:23:55.904Z,74.54
2022-10-19T00:26:22.847Z,74.55
2022-10-19T00:28:50.282Z,74.76
2022-10-19T00:31:18.329Z,74.75
2022-10-19T00:33:47.152Z,74.64
2022-10-19T00:36:25.443Z,74.82
2022-10-19T00:38:53.646Z,74.82
2022-10-19T00:41:22.911Z,74.64
2022-10-19T00:43:52.417Z,75.25
2022-10-19T00:46:19.546Z,75.08
2022-10-19T00:48:46.608Z,75.25
2022-10-19T00:51:14.232Z,75.10
2022-10-19T00:53:41.775Z,75.28
2022-10-19T00:56:12.067Z,75.12
2022-10-19T00:58:39.892Z,75.03
2022-10-19T01:01:09.935Z,74.99
2022-10-19T01:03:37.084Z,74.84
2022-10-19T01:06:04.183Z,75.26
2022-10-19T01:08:31.305Z,75.48
2022-10-19T01:11:26.904Z,75.19
2022-10-19T01:14:18.665Z,75.65
2022-10-19T01:17:10.405Z,75.65
2022-10-19T01:20:07.926Z,75.67
2022-10-19T01:22:56.231Z,75.71
2022-10-19T01:25:54.010Z,75.56
2022-10-19T01:28:39.475Z,75.80
2022-10-19T01:31:28.055Z,75.88
2022-10-19T01:34:14.066Z,75.98
2022-10-19T01:37:05.934Z,75.85
2022-10-19T01:39:46.370Z,75.93
2022-10-19T01:42:19.732Z,76.01
2022-10-19T01:45:06.629Z,76.05
2022-10-19T01:47:41.906Z,75.95
2022-10-19T01:50:16.450Z,76.33
2022-10-19T01:52:43.971Z,76.12
2022-10-19T01:55:13.434Z,76.33
2022-10-19T01:57:54.288Z,76.31
2022-10-19T02:00:23.364Z,76.61
2022-10-19T02:02:52.629Z,76.50
2022-10-19T02:05:22.888Z,76.42
2022-10-19T02:07:53.489Z,76.39
2022-10-19T02:10:20.753Z,76.51
2022-10-19T02:12:48.404Z,76.64
2022-10-19T02:15:19.877Z,76.71
2022-10-19T02:17:50.224Z,76.71
2022-10-19T02:20:18.075Z,76.67
2022-10-19T02:22:45.171Z,76.92
2022-10-19T02:25:12.622Z,76.98
2022-10-19T02:27:43.502Z,76.80
2022-10-19T02:30:13.867Z,76.95
2022-10-19T02:32:41.405Z,77.35
2022-10-19T02:35:08.648Z,77.09
2022-10-19T02:40:04.950Z,77.32
2022-10-19T02:42:40.152Z,77.67
2022-10-19T02:45:33.896Z,77.96
2022-10-19T02:48:02.668Z,77.92
2022-10-19T02:50:29.763Z,77.67
2022-10-19T02:52:58.906Z,77.54
2022-10-19T02:55:26.007Z,77.76
2022-10-19T02:57:53.884Z,77.98
2022-10-19T03:00:20.880Z,77.92
2022-10-19T03:02:48.502Z,77.75
2022-10-19T03:05:15.557Z,78.28
2022-10-19T03:07:43.056Z,77.86
2022-10-19T03:10:10.225Z,78.33
2022-10-19T03:12:37.158Z,78.42
2022-10-19T03:15:04.788Z,78.13
2022-10-19T03:17:32.172Z,78.45
2022-10-19T03:19:59.405Z,78.58
2022-10-19T03:22:26.412Z,78.44
2022-10-19T03:24:53.341Z,78.31
2022-10-19T03:27:20.404Z,78.57
2022-10-19T03:29:47.545Z,78.79
2022-10-19T03:32:14.485Z,78.56
2022-10-19T03:34:41.620Z,79.04
2022-10-19T03:37:08.922Z,78.58
2022-10-19T03:39:35.931Z,78.96
2022-10-19T03:42:03.025Z,78.87
2022-10-19T03:44:29.931Z,78.68
2022-10-19T03:46:56.905Z,79.07
2022-10-19T03:49:23.953Z,78.89
2022-10-19T03:51:50.865Z,78.96
2022-10-19T03:54:18.024Z,79.26
2022-10-19T03:56:45.052Z,79.04
2022-10-19T03:59:14.650Z,79.28
2022-10-19T04:01:44.666Z,79.21
2022-10-19T04:04:14.749Z,78.91
2022-10-19T04:06:43.723Z,79.15
2022-10-19T04:09:13.553Z,79.64
2022-10-19T04:11:41.231Z,79.59
2022-10-19T04:16:35.573Z,79.66
2022-10-19T04:19:02.623Z,79.40
2022-10-19T04:21:37.465Z,79.44
2022-10-19T04:24:05.637Z,79.76
2022-10-19T04:26:33.785Z,79.39
2022-10-19T04:29:01.787Z,79.64
2022-10-19T04:31:29.087Z,79.83
2022-10-19T04:33:57.103Z,79.48
2022-10-19T04:36:24.345Z,79.82
2022-10-19T04:38:51.610Z,79.74
2022-10-19T04:41:20.544Z,79.85
2022-10-19T04:43:48.610Z,79.72
2022-10-19T04:46:18.186Z,79.67
2022-10-19T04:48:47.220Z,80.10
2022-10-19T04:51:15.304Z,79.90
2022-10-19T04:53:43.097Z,80.12
2022-10-19T04:56:17.432Z,79.83
2022-10-19T04:58:44.746Z,79.62
2022-10-19T05:01:16.651Z,80.00
2022-10-19T05:03:43.810Z,80.10
2022-10-19T05:06:11.569Z,79.92
2022-10-19T05:08:38.892Z,80.29
2022-10-19T05:11:11.863Z,79.92
2022-10-19T05:13:39.314Z,79.68
2022-10-19T05:16:09.510Z,80.01
2022-10-19T05:18:37.744Z,79.95
2022-10-19T05:21:11.129Z,80.54
2022-10-19T05:23:39.734Z,80.04
2022-10-19T05:26:09.029Z,79.92
2022-10-19T05:28:37.038Z,80.41
2022-10-19T05:31:12.803Z,80.44
2022-10-19T05:33:40.356Z,80.19
2022-10-19T05:36:15.747Z,80.31
2022-10-19T05:38:43.717Z,80.43
2022-10-19T05:41:11.186Z,80.06
2022-10-19T05:43:38.191Z,80.16
2022-10-19T05:46:08.085Z,80.36
2022-10-19T05:48:36.382Z,80.06
2022-10-19T05:51:05.983Z,80.40
2022-10-19T05:53:33.484Z,80.10
2022-10-19T05:56:00.546Z,80.08
2022-10-19T05:58:27.887Z,80.11
2022-10-19T06:00:56.174Z,79.80
2022-10-19T06:03:23.804Z,79.97
2022-10-19T06:05:51.292Z,79.81
2022-10-19T06:08:19.578Z,80.11
2022-10-19T06:10:47.965Z,79.89
2022-10-19T06:13:15.630Z,79.91
2022-10-19T06:15:42.677Z,79.95
2022-10-19T06:18:11.051Z,80.26
2022-10-19T06:20:40.274Z,79.83
2022-10-19T06:23:08.321Z,80.33
2022-10-19T06:25:36.212Z,79.54
2022-10-19T06:28:03.848Z,79.88
2022-10-19T06:30:30.865Z,79.75
2022-10-19T06:32:59.191Z,80.25
2022-10-19T06:35:26.223Z,80.15
2022-10-19T06:37:53.162Z,80.11
2022-10-19T06:40:20.337Z,80.00
2022-10-19T06:42:47.423Z,79.87
2022-10-19T06:45:14.562Z,80.00
2022-10-19T06:47:41.595Z,79.61
2022-10-19T06:50:08.905Z,79.28
2022-10-19T06:52:36.591Z,79.41
2022-10-19T06:55:04.194Z,79.48
2022-10-19T06:57:31.391Z,78.87
2022-10-19T06:59:58.433Z,79.07
2022-10-19T07:02:25.415Z,78.62
2022-10-19T07:04:52.818Z,78.88
2022-10-19T07:07:19.897Z,78.23
2022-10-19T07:09:48.526Z,78.58
2022-10-19T07:12:15.551Z,78.23
2022-10-19T07:14:42.504Z,78.19
2022-10-19T07:17:11.768Z,78.35
2022-10-19T07:19:38.811Z,77.81
2022-10-19T07:22:05.941Z,78.03
2022-10-19T07:24:33.024Z,78.00
2022-10-19T07:27:00.039Z,77.85
2022-10-19T07:29:27.184Z,77.73
2022-10-19T07:31:54.344Z,77.82
2022-10-19T07:34:24.192Z,77.64
2022-10-19T07:36:54.938Z,77.58
2022-10-19T07:39:22.018Z,77.54
2022-10-19T07:41:49.220Z,77.69
2022-10-19T07:44:16.286Z,77.46
2022-10-19T07:46:43.443Z,77.20
2022-10-19T07:49:16.584Z,77.28
2022-10-19T07:51:43.822Z,76.66
2022-10-19T07:54:10.830Z,76.88
2022-10-19T07:56:37.925Z,76.48
2022-10-19T07:59:05.950Z,76.23
2022-10-19T08:01:35.342Z,76.07
2022-10-19T08:06:49.991Z,75.70
2022-10-19T08:09:47.458Z,75.70
2022-10-19T08:12:05.404Z,75.58
2022-10-19T08:14:33.223Z,75.49
2022-10-19T08:17:00.425Z,75.34
2022-10-19T08:19:27.805Z,75.50
2022-10-19T08:21:54.737Z,75.01
2022-10-19T08:24:22.067Z,75.60
2022-10-19T08:26:52.061Z,75.46
2022-10-19T08:29:23.776Z,74.86
2022-10-19T08:31:53.362Z,74.97
2022-10-19T08:34:20.317Z,75.09
2022-10-19T08:36:47.462Z,74.76
2022-10-19T08:39:14.970Z,74.83
2022-10-19T08:42:04.051Z,75.10
2022-10-19T08:44:55.646Z,74.56
2022-10-19T08:47:47.883Z,75.02
2022-10-19T08:50:16.606Z,74.62
2022-10-19T08:52:46.382Z,74.39
2022-10-19T08:55:20.586Z,74.23
2022-10-19T08:58:26.162Z,74.33
2022-10-19T09:00:59.779Z,74.31
2022-10-19T09:04:00.113Z,73.43
2022-10-19T09:06:37.964Z,73.51
2022-10-19T09:09:05.713Z,73.46
2022-10-19T09:11:38.092Z,73.59
2022-10-19T09:14:07.232Z,72.88
2022-10-19T09:16:35.405Z,72.81
2022-10-19T09:19:03.982Z,72.47
2022-10-19T09:22:05.182Z,72.40
2022-10-19T09:24:37.870Z,72.08
2022-10-19T09:27:06.369Z,72.30
2022-10-19T09:29:41.085Z,71.82
2022-10-19T09:32:17.601Z,71.59
2022-10-19T09:34:57.303Z,71.14
2022-10-19T09:37:26.502Z,70.61
2022-10-19T09:39:55.881Z,70.78
2022-10-19T09:42:33.572Z,70.82
2022-10-19T09:45:06.862Z,70.75
2022-10-19T09:47:39.166Z,70.46
2022-10-19T09:50:16.143Z,69.78
2022-10-19T09:52:45.369Z,69.75
2022-10-19T09:55:15.922Z,69.50
2022-10-19T09:57:49.221Z,68.84
2022-10-19T10:00:32.703Z,68.96
2022-10-19T10:03:00.001Z,68.60
2022-10-19T10:05:36.145Z,68.23
2022-10-19T10:08:04.708Z,68.27
2022-10-19T10:10:38.511Z,67.86
2022-10-19T10:13:06.402Z,68.11
2022-10-19T10:15:57.042Z,67.77
2022-10-19T10:18:25.382Z,67.50
2022-10-19T10:21:15.445Z,67.23
2022-10-19T10:23:43.600Z,67.31
2022-10-19T10:26:20.165Z,67.01
2022-10-19T10:28:50.005Z,67.07
2022-10-19T10:31:22.507Z,66.74
2022-10-19T10:34:10.932Z,66.39
2022-10-19T10:36:51.463Z,65.91
2022-10-19T10:39:18.789Z,66.29
2022-10-19T10:41:47.782Z,65.92
2022-10-19T10:44:19.765Z,65.89
2022-10-19T10:46:56.244Z,65.61
2022-10-19T10:49:29.383Z,65.55
2022-10-19T10:52:13.102Z,65.56
2022-10-19T10:54:40.611Z,65.18
2022-10-19T10:57:13.957Z,64.85
2022-10-19T11:00:02.804Z,65.20
2022-10-19T11:02:51.485Z,65.10
2022-10-19T11:05:25.425Z,64.84
2022-10-19T11:08:30.331Z,64.61
2022-10-19T11:11:05.186Z,64.50
2022-10-19T11:13:43.362Z,64.13
2022-10-19T11:16:16.465Z,63.79
2022-10-19T11:18:54.171Z,64.20
2022-10-19T11:21:27.271Z,63.69
2022-10-19T11:23:55.725Z,63.74
2022-10-19T11:26:47.672Z,63.45
2022-10-19T11:29:36.066Z,64.04
2022-10-19T11:32:03.704Z,63.92
2022-10-19T11:34:56.774Z,64.25
2022-10-19T11:37:26.463Z,64.19
2022-10-19T11:40:05.979Z,64.04
2022-10-19T11:42:44.925Z,64.38
2022-10-19T11:45:36.865Z,64.00
2022-10-19T11:48:35.162Z,63.99
2022-10-19T11:51:21.029Z,64.60
2022-10-19T11:54:21.661Z,64.43
2022-10-19T11:57:11.365Z,64.81
2022-10-19T12:00:13.508Z,65.08
2022-10-19T12:03:03.866Z,64.68
2022-10-19T12:06:09.643Z,65.32
2022-10-19T12:09:21.818Z,65.17
2022-10-19T12:12:20.982Z,66.16
2022-10-19T12:14:51.683Z,66.29
2022-10-19T12:17:30.123Z,65.65
2022-10-19T12:20:01.932Z,65.95
2022-10-19T12:22:30.345Z,66.40
2022-10-19T12:25:01.732Z,66.48
2022-10-19T12:27:41.922Z,66.15
2022-10-19T12:30:13.882Z,66.15
2022-10-19T12:32:56.493Z,66.63
2022-10-19T12:36:11.350Z,66.49
2022-10-19T12:38:44.012Z,66.58
2022-10-19T12:41:27.655Z,67.17
2022-10-19T12:44:26.904Z,66.32
2022-10-19T12:47:00.879Z,67.15
2022-10-19T12:49:30.826Z,66.31
2022-10-19T12:52:02.134Z,67.05
2022-10-19T12:54:31.782Z,66.76
2022-10-19T12:57:01.245Z,66.70
2022-10-19T12:59:32.102Z,67.34
2022-10-19T13:02:00.124Z,66.50
2022-10-19T13:04:32.603Z,66.52
2022-10-19T13:07:06.362Z,66.55
2022-10-19T13:09:36.464Z,66.72
2022-10-19T13:12:25.830Z,66.27
2022-10-19T13:15:00.986Z,66.63
2022-10-19T13:17:35.251Z,65.90
2022-10-19T13:22:59.532Z,65.53
2022-10-19T13:25:30.889Z,64.39
2022-10-19T13:28:08.072Z,63.94
2022-10-19T13:30:47.152Z,63.97
2022-10-19T13:33:29.360Z,63.62
2022-10-19T13:35:59.087Z,62.76
2022-10-19T13:38:42.246Z,62.65
2022-10-19T13:41:21.338Z,62.44
2022-10-19T13:44:11.583Z,62.51
2022-10-19T13:46:55.722Z,62.33
2022-10-19T13:49:53.834Z,62.92
2022-10-19T13:52:31.220Z,62.94
2022-10-19T13:55:32.430Z,62.35
2022-10-19T13:58:18.141Z,62.82
2022-10-19T14:01:03.590Z,62.96
2022-10-19T14:03:49.210Z,62.75
2022-10-19T14:06:23.541Z,62.33
2022-10-19T14:09:11.370Z,62.17
2022-10-19T14:11:40.716Z,62.51
2022-10-19T14:14:17.168Z,62.36
2022-10-19T14:16:51.755Z,63.09
2022-10-19T14:19:43.721Z,62.41
2022-10-19T14:22:26.133Z,62.98
2022-10-19T14:25:07.819Z,62.99
2022-10-19T14:46:48.783Z,63.65
2022-10-19T14:49:15.977Z,63.67
2022-10-19T14:51:49.917Z,63.21
2022-10-19T14:54:39.298Z,63.70
2022-10-19T14:57:15.781Z,63.35
2022-10-19T14:59:46.455Z,64.03
2022-10-19T15:02:34.476Z,63.66
2022-10-19T15:05:04.595Z,64.08
2022-10-19T15:07:40.200Z,64.08
2022-10-19T15:10:36.409Z,64.11
2022-10-19T15:13:05.825Z,64.18
2022-10-19T15:15:34.894Z,64.25
2022-10-19T15:18:02.103Z,64.59
2022-10-19T15:20:44.025Z,64.73
2022-10-19T15:23:44.685Z,64.73
2022-10-19T15:26:20.230Z,64.80
2022-10-19T15:28:48.637Z,65.02
2022-10-19T15:31:17.744Z,65.11
2022-10-19T15:33:53.518Z,65.16
2022-10-19T15:36:22.200Z,65.27
2022-10-19T15:39:11.514Z,65.25
2022-10-19T15:41:48.575Z,65.48
2022-10-19T15:44:41.186Z,65.57
2022-10-19T15:47:20.290Z,65.47
2022-10-19T15:50:08.040Z,65.60
2022-10-19T15:52:35.210Z,65.94
2022-10-19T15:55:02.330Z,65.98
2022-10-19T15:57:35.330Z,65.91
2022-10-19T16:00:12.339Z,66.04
2022-10-19T16:02:39.519Z,65.88
2022-10-19T16:07:37.037Z,66.15
2022-10-19T16:10:04.572Z,66.23
2022-10-19T16:12:31.698Z,66.22
2022-10-19T16:14:58.821Z,66.33
2022-10-19T16:17:25.916Z,66.57
2022-10-19T16:19:52.846Z,66.75
2022-10-19T16:22:20.069Z,66.57
2022-10-19T16:24:47.238Z,66.72
2022-10-19T16:27:17.188Z,66.86
2022-10-19T16:29:44.996Z,67.22
2022-10-19T16:32:12.101Z,67.01
2022-10-19T16:34:39.298Z,67.02
2022-10-19T16:37:07.292Z,67.09
2022-10-19T16:39:35.318Z,67.57
2022-10-19T16:42:02.244Z,67.59
2022-10-19T16:44:29.474Z,67.30
2022-10-19T16:46:57.187Z,67.67
2022-10-19T16:49:24.370Z,67.54
2022-10-19T16:51:54.698Z,67.57
2022-10-19T16:54:26.615Z,67.55
2022-10-19T16:56:55.760Z,67.55
2022-10-19T16:59:22.804Z,67.63
2022-10-19T17:01:49.943Z,67.71
2022-10-19T17:04:20.198Z,67.96
2022-10-19T17:06:47.217Z,67.52
2022-10-19T17:12:01.579Z,67.58
2022-10-19T17:14:28.659Z,67.81
2022-10-19T17:16:55.630Z,67.85
2022-10-19T17:19:23.370Z,67.60
2022-10-19T17:21:50.566Z,67.76
2022-10-19T17:24:21.950Z,68.03
2022-10-19T17:26:53.331Z,68.01
2022-10-19T17:29:21.843Z,68.13
2022-10-19T17:31:51.887Z,68.14
2022-10-19T17:34:19.076Z,68.15
2022-10-19T17:36:47.066Z,68.06
2022-10-19T17:39:18.431Z,68.26
2022-10-19T17:41:47.659Z,68.17
2022-10-19T17:44:15.588Z,67.75
2022-10-19T17:46:43.076Z,67.77
2022-10-19T17:49:10.531Z,68.15
2022-10-19T17:51:38.876Z,68.05
2022-10-19T17:54:12.706Z,68.34
2022-10-19T17:56:41.122Z,68.22
2022-10-19T17:59:09.303Z,68.41
2022-10-19T18:01:37.745Z,68.00
2022-10-19T18:04:06.945Z,68.13
2022-10-19T18:06:36.939Z,68.40
2022-10-19T18:09:07.358Z,68.42
2022-10-19T18:11:39.507Z,68.46
2022-10-19T18:14:09.438Z,68.27
2022-10-19T18:16:41.189Z,68.42
2022-10-19T18:19:20.101Z,68.58
2022-10-19T18:21:59.318Z,68.54
2022-10-19T18:24:38.478Z,68.60
2022-10-19T18:27:15.986Z,68.39
2022-10-19T18:29:59.296Z,68.47
2022-10-19T18:32:36.097Z,68.96
2022-10-19T18:35:13.692Z,68.68
2022-10-19T18:37:48.528Z,68.65
2022-10-19T18:40:26.900Z,68.98
2022-10-19T18:43:08.363Z,68.72
2022-10-19T18:45:43.995Z,69.20
2022-10-19T18:48:18.995Z,69.11
2022-10-19T18:50:47.987Z,68.97
2022-10-19T18:53:15.317Z,69.06
2022-10-19T18:55:42.656Z,68.97
2022-10-19T18:58:10.173Z,69.37
2022-10-19T19:00:39.843Z,69.22
2022-10-19T19:03:08.963Z,69.42
2022-10-19T19:05:35.889Z,69.49
2022-10-19T19:08:02.837Z,69.54
2022-10-19T19:10:29.953Z,69.24
2022-10-19T19:12:56.941Z,69.43
2022-10-19T19:15:24.020Z,69.34
2022-10-19T19:17:54.958Z,69.79
2022-10-19T19:20:22.006Z,69.82
2022-10-19T19:22:49.893Z,69.33
2022-10-19T19:25:18.451Z,69.55
2022-10-19T19:27:46.156Z,69.92
2022-10-19T19:30:14.094Z,69.89
2022-10-19T19:32:42.651Z,70.03
2022-10-19T19:35:11.620Z,69.58
2022-10-19T19:37:41.974Z,69.63
2022-10-19T19:40:10.760Z,70.10
2022-10-19T19:42:37.879Z,69.90
2022-10-19T19:45:05.248Z,70.27
2022-10-19T19:47:32.401Z,70.32
2022-10-19T19:49:59.547Z,70.32
2022-10-19T19:52:28.389Z,69.89
2022-10-19T19:54:56.164Z,70.11
2022-10-19T19:57:23.253Z,70.13
2022-10-19T19:59:53.052Z,69.93
2022-10-19T20:02:24.320Z,70.28
2022-10-19T20:04:53.856Z,70.51
2022-10-19T20:07:24.736Z,70.45
2022-10-19T20:09:54.938Z,70.65
2022-10-19T20:12:23.532Z,71.03
2022-10-19T20:14:52.871Z,71.09
2022-10-19T20:17:24.322Z,70.94
2022-10-19T20:19:53.749Z,70.50
2022-10-19T20:22:21.684Z,70.65
2022-10-19T20:24:48.772Z,71.29
2022-10-19T20:27:15.736Z,71.01
2022-10-19T20:29:45.556Z,70.84
2022-10-19T20:32:14.046Z,71.06
2022-10-19T20:34:41.607Z,71.21
2022-10-19T20:37:09.657Z,71.83
2022-10-19T20:39:37.033Z,71.50
2022-10-19T20:42:04.111Z,71.76
2022-10-19T20:44:31.217Z,72.15
2022-10-19T20:46:58.306Z,71.67
2022-10-19T20:49:25.276Z,71.46
2022-10-19T20:51:54.337Z,71.89
2022-10-19T20:54:21.304Z,71.72
2022-10-19T20:56:49.376Z,71.94
2022-10-19T20:59:18.837Z,72.15
2022-10-19T21:01:47.146Z,72.34
2022-10-19T21:04:14.657Z,71.91
2022-10-19T21:06:46.121Z,72.45
2022-10-19T21:09:15.184Z,72.32
2022-10-19T21:11:43.308Z,72.72
2022-10-19T21:14:16.670Z,72.52
2022-10-19T21:16:43.844Z,72.73
2022-10-19T21:19:13.441Z,72.72
2022-10-19T21:21:46.181Z,72.66
2022-10-19T21:24:19.028Z,72.52
2022-10-19T21:26:46.704Z,73.15
2022-10-19T21:29:15.522Z,72.53
2022-10-19T21:31:47.990Z,73.00
2022-10-19T21:34:19.158Z,72.30
2022-10-19T21:36:46.979Z,72.64
2022-10-19T21:39:14.178Z,72.87
2022-10-19T21:41:41.298Z,73.04
2022-10-19T21:44:08.745Z,72.65
2022-10-19T21:46:35.858Z,72.48
2022-10-19T21:49:02.817Z,72.43
2022-10-19T21:51:56.494Z,72.71
2022-10-19T21:54:25.166Z,72.71
2022-10-19T21:56:53.368Z,73.25
2022-10-19T21:59:20.517Z,72.76
2022-10-19T22:01:47.591Z,72.93
2022-10-19T22:04:16.679Z,73.03
2022-10-19T22:06:43.759Z,73.15
2022-10-19T22:09:14.132Z,72.72
2022-10-19T22:11:41.469Z,73.15
2022-10-19T22:14:08.508Z,72.94
2022-10-19T22:16:37.080Z,72.68
2022-10-19T22:19:05.664Z,72.98
2022-10-19T22:21:33.855Z,72.77
2022-10-19T22:24:07.150Z,72.66
2022-10-19T22:26:37.329Z,73.05
2022-10-19T22:29:05.558Z,72.88
2022-10-19T22:31:34.179Z,72.76
2022-10-19T22:34:02.353Z,72.97
2022-10-19T22:36:29.675Z,72.69
2022-10-19T22:38:56.851Z,72.42
2022-10-19T22:41:23.708Z,72.61
2022-10-19T22:43:50.654Z,72.79
2022-10-19T22:46:17.524Z,72.72
2022-10-19T22:48:44.468Z,72.36
2022-10-19T22:51:11.488Z,72.52
2022-10-19T22:53:38.403Z,72.24
2022-10-19T22:56:05.631Z,72.17
2022-10-19T22:58:32.526Z,72.43
2022-10-19T23:01:05.237Z,72.51
2022-10-19T23:03:32.400Z,72.22
2022-10-19T23:05:59.620Z,72.41
2022-10-19T23:08:26.775Z,72.18
2022-10-19T23:10:53.899Z,72.11
2022-10-19T23:13:20.984Z,72.00
2022-10-19T23:15:47.947Z,72.19
2022-10-19T23:18:15.039Z,72.25
2022-10-19T23:20:42.188Z,72.02
2022-10-19T23:23:09.786Z,72.09
2022-10-19T23:25:36.681Z,72.00
2022-10-19T23:28:03.718Z,72.01
2022-10-19T23:30:30.600Z,72.22
2022-10-19T23:32:57.583Z,72.08
2022-10-19T23:35:24.569Z,71.89
2022-10-19T23:37:51.505Z,72.25
2022-10-19T23:40:18.434Z,72.17
2022-10-19T23:42:45.467Z,71.99
2022-10-19T23:45:13.272Z,72.16
2022-10-19T23:47:40.176Z,72.28
2022-10-19T23:50:07.405Z,71.99
2022-10-19T23:52:34.355Z,72.00
2022-10-19T23:55:01.340Z,72.08
2022-10-19T23:57:28.218Z,72.29
2022-10-19T23:59:55.156Z,72.12
